Time;durP1;ratioP1;P1;durP2;ratioP2;P2;SDS_P1;SDS_P2;PMS_P1;PMS_P2;Temp;Humidity;BMP_temperature;BMP_pressure;BME280_temperature;BME280_humidity;BME280_pressure;Samples;Min_cycle;Max_cycle;Signal;HPM_P1;HPM_P2
2021/05/02 00:00:42;;;;;;;16.73;7.07;;;15.70;94.30;;;;;;5036962;28;20460;-77
2021/05/02 00:03:07;;;;;;;6.32;3.90;;;15.70;94.70;;;;;;5036512;28;20132;-74
2021/05/02 00:05:35;;;;;;;5.20;3.20;;;15.60;94.90;;;;;;5037113;28;20029;-74
2021/05/02 00:08:03;;;;;;;5.30;2.70;;;15.60;95.10;;;;;;5037107;28;20474;-72
2021/05/02 00:10:31;;;;;;;8.93;3.10;;;15.50;95.10;;;;;;5054307;28;20107;-73
2021/05/02 00:13:00;;;;;;;10.30;3.75;;;15.40;95.20;;;;;;5055287;28;20025;-73
2021/05/02 00:15:27;;;;;;;7.72;3.17;;;15.30;95.50;;;;;;5056801;28;20059;-73
2021/05/02 00:17:55;;;;;;;4.38;2.90;;;15.30;95.70;;;;;;5056795;28;20057;-74
2021/05/02 00:20:24;;;;;;;7.68;3.40;;;15.20;96.20;;;;;;5056739;28;20056;-74
2021/05/02 00:22:55;;;;;;;6.90;3.53;;;15.20;96.30;;;;;;5056854;28;20466;-74
2021/05/02 00:25:24;;;;;;;;;;;15.10;96.30;;;;;;5056744;28;20024;-74
2021/05/02 00:27:50;;;;;;;5.97;3.30;;;15.00;97.00;;;;;;5056506;28;20343;-74
2021/05/02 00:30:19;;;;;;;4.90;3.35;;;15.10;96.20;;;;;;5039218;28;20404;-74
2021/05/02 00:32:48;;;;;;;5.93;3.65;;;15.10;96.40;;;;;;5036743;28;20025;-74
2021/05/02 00:35:18;;;;;;;3.53;3.22;;;15.00;96.50;;;;;;5036002;28;20028;-74
2021/05/02 00:37:44;;;;;;;6.80;3.38;;;15.00;96.50;;;;;;5035248;28;20036;-74
2021/05/02 00:40:18;;;;;;;4.80;3.00;;;15.10;96.60;;;;;;5034860;28;20483;-74
2021/05/02 00:42:50;;;;;;;6.90;3.72;;;15.10;96.70;;;;;;5035211;28;20026;-74
2021/05/02 00:45:29;;;;;;;4.57;3.75;;;15.10;96.70;;;;;;5040320;28;20032;-74
2021/05/02 00:48:45;;;;;;;5.68;3.55;;;15.10;96.70;;;;;;5054242;28;20402;-74
2021/05/02 00:51:15;;;;;;;6.25;3.72;;;15.10;96.70;;;;;;5052497;28;20065;-74
2021/05/02 00:54:05;;;;;;;8.63;3.85;;;15.10;96.60;;;;;;5054280;28;20028;-74
2021/05/02 00:56:36;;;;;;;;;;;15.10;96.80;;;;;;5054543;28;20051;-74
2021/05/02 00:59:05;;;;;;;;;;;15.00;97.50;;;;;;5053335;28;19909;-74
2021/05/02 01:01:38;;;;;;;9.13;4.90;;;15.00;97.70;;;;;;5054251;28;19905;-74
2021/05/02 01:04:06;;;;;;;16.60;6.47;;;15.00;96.70;;;;;;5053832;28;20124;-74
2021/05/02 01:06:32;;;;;;;16.30;7.03;;;14.90;96.70;;;;;;5051909;28;20036;-74
2021/05/02 01:09:02;;;;;;;24.25;8.50;;;14.90;96.90;;;;;;5053963;28;20036;-74
2021/05/02 01:11:29;;;;;;;16.08;7.93;;;14.80;96.90;;;;;;5054129;28;20122;-74
2021/05/02 01:14:01;;;;;;;20.30;8.40;;;14.80;96.90;;;;;;5054233;28;20790;-74
2021/05/02 01:16:35;;;;;;;20.33;9.73;;;14.80;96.90;;;;;;5053786;28;20419;-74
2021/05/02 01:19:04;;;;;;;18.85;7.95;;;14.70;96.90;;;;;;5053894;28;20483;-74
2021/05/02 01:21:35;;;;;;;18.73;7.90;;;14.70;97.00;;;;;;5053653;28;20039;-74
2021/05/02 01:24:02;;;;;;;18.95;8.45;;;14.70;97.00;;;;;;5053408;28;20375;-74
2021/05/02 01:26:28;;;;;;;18.92;8.93;;;14.70;97.00;;;;;;5051977;28;20033;-74
2021/05/02 01:28:57;;;;;;;16.55;7.28;;;14.60;97.40;;;;;;5052400;28;20025;-74
2021/05/02 01:31:23;;;;;;;17.92;6.97;;;14.60;97.30;;;;;;5053706;28;20021;-74
2021/05/02 01:33:50;;;;;;;13.85;7.20;;;14.60;97.20;;;;;;5052337;28;20024;-74
2021/05/02 01:36:16;;;;;;;15.25;7.07;;;14.60;97.30;;;;;;5052190;28;20048;-74
2021/05/02 01:38:42;;;;;;;11.65;6.65;;;14.50;97.30;;;;;;5051405;28;20489;-74
2021/05/02 01:41:08;;;;;;;13.80;6.75;;;14.50;97.20;;;;;;5052230;28;20552;-74
2021/05/02 01:43:34;;;;;;;11.77;6.38;;;14.50;97.30;;;;;;5054629;28;20059;-74
2021/05/02 01:46:01;;;;;;;13.50;6.43;;;14.50;97.30;;;;;;5055033;28;20029;-74
2021/05/02 01:48:29;;;;;;;12.65;6.28;;;14.50;97.30;;;;;;5054667;28;20013;-74
2021/05/02 01:51:02;;;;;;;10.48;6.53;;;14.40;97.30;;;;;;5053654;28;20020;-74
2021/05/02 01:53:30;;;;;;;10.40;5.82;;;14.40;97.50;;;;;;5054612;28;20032;-74
2021/05/02 01:55:56;;;;;;;10.68;6.30;;;14.40;97.40;;;;;;5055066;28;20078;-74
2021/05/02 01:58:24;;;;;;;9.05;6.05;;;14.40;97.50;;;;;;5054252;28;20021;-74
2021/05/02 02:00:53;;;;;;;9.55;6.15;;;14.40;97.50;;;;;;5054423;28;20028;-74
2021/05/02 02:03:19;;;;;;;6.82;5.10;;;14.40;97.60;;;;;;5053047;28;20454;-74
2021/05/02 02:05:47;;;;;;;5.20;4.63;;;14.30;97.50;;;;;;5054535;28;20120;-75
2021/05/02 02:08:14;;;;;;;5.22;4.50;;;14.30;97.50;;;;;;5053326;28;20120;-75
2021/05/02 02:10:40;;;;;;;5.97;5.18;;;14.30;97.50;;;;;;5054218;28;20017;-74
2021/05/02 02:13:09;;;;;;;5.60;4.50;;;14.30;97.60;;;;;;5054626;28;20025;-74
2021/05/02 02:15:35;;;;;;;6.30;5.10;;;14.30;97.60;;;;;;5053590;28;20053;-74
2021/05/02 02:18:03;;;;;;;7.22;4.63;;;14.30;97.60;;;;;;5038851;28;20088;-74
2021/05/02 02:20:35;;;;;;;8.10;4.82;;;14.30;97.70;;;;;;5034368;28;20379;-74
2021/05/02 02:23:07;;;;;;;5.03;4.47;;;14.30;97.80;;;;;;5034760;28;20026;-74
2021/05/02 02:25:39;;;;;;;5.50;4.32;;;14.20;97.80;;;;;;5034659;28;20080;-74
2021/05/02 02:28:10;;;;;;;6.07;4.40;;;14.30;97.70;;;;;;5033138;28;20061;-74
2021/05/02 02:30:37;;;;;;;;;;;14.30;97.80;;;;;;5034662;28;20022;-75
2021/05/02 02:33:07;;;;;;;6.40;4.68;;;14.30;98.60;;;;;;5034395;28;20243;-75
2021/05/02 02:35:39;;;;;;;6.85;4.95;;;14.30;98.10;;;;;;5033190;28;20029;-75
2021/05/02 02:38:07;;;;;;;6.90;4.45;;;14.30;98.00;;;;;;5047733;28;20037;-75
2021/05/02 02:40:37;;;;;;;6.95;5.57;;;14.30;97.90;;;;;;5054365;28;20096;-75
2021/05/02 02:43:05;;;;;;;7.68;5.57;;;14.40;98.10;;;;;;5053058;28;20025;-75
2021/05/02 02:45:38;;;;;;;6.45;5.38;;;14.30;98.00;;;;;;5051438;28;20025;-75
2021/05/02 02:48:05;;;;;;;7.15;6.45;;;14.30;98.00;;;;;;5052583;28;20078;-74
2021/05/02 02:50:32;;;;;;;8.73;6.97;;;14.40;98.10;;;;;;5051691;28;20040;-75
2021/05/02 02:53:03;;;;;;;10.45;7.82;;;14.40;98.10;;;;;;5051251;28;20449;-75
2021/05/02 02:55:30;;;;;;;9.77;7.75;;;14.50;98.20;;;;;;5052506;28;20437;-76
2021/05/02 02:58:01;;;;;;;10.02;8.23;;;14.50;98.20;;;;;;5052263;28;20477;-75
2021/05/02 03:00:35;;;;;;;12.90;10.38;;;14.50;98.20;;;;;;5052972;28;20025;-76
2021/05/02 03:03:13;;;;;;;14.48;11.73;;;14.50;98.30;;;;;;5035694;28;20064;-75
2021/05/02 03:05:40;;;;;;;17.50;12.73;;;14.50;98.30;;;;;;5014945;28;20060;-75
2021/05/02 03:08:09;;;;;;;16.52;11.88;;;14.60;98.30;;;;;;5031350;28;20029;-76
2021/05/02 03:10:36;;;;;;;14.40;11.43;;;14.60;98.20;;;;;;5031357;28;20029;-75
2021/05/02 03:13:02;;;;;;;14.48;10.65;;;14.60;98.20;;;;;;5032216;28;20029;-75
2021/05/02 03:15:29;;;;;;;14.07;11.10;;;14.70;98.20;;;;;;5030084;28;20340;-77
2021/05/02 03:18:16;;;;;;;15.02;11.43;;;14.70;98.20;;;;;;5051864;28;20422;-74
2021/05/02 03:20:45;;;;;;;14.85;11.30;;;14.80;98.20;;;;;;5051970;28;20103;-73
2021/05/02 03:23:43;;;;;;;16.48;12.43;;;14.80;98.10;;;;;;5040876;28;20032;-74
2021/05/02 03:26:11;;;;;;;16.73;11.23;;;14.90;98.20;;;;;;5026828;28;20112;-74
2021/05/02 03:28:44;;;;;;;16.30;12.57;;;14.90;98.00;;;;;;5029143;28;20379;-74
2021/05/02 03:31:13;;;;;;;15.05;13.20;;;15.00;98.30;;;;;;5031715;28;20036;-73
2021/05/02 03:33:45;;;;;;;18.80;14.80;;;15.00;98.00;;;;;;5011203;28;20106;-73
2021/05/02 03:36:19;;;;;;;20.73;15.23;;;15.00;97.90;;;;;;5010842;28;20471;-73
2021/05/02 03:38:49;;;;;;;20.52;15.13;;;15.00;97.90;;;;;;5011811;28;20034;-73
2021/05/02 03:41:18;;;;;;;22.00;15.93;;;15.10;97.90;;;;;;5037886;28;20025;-73
2021/05/02 03:43:48;;;;;;;19.02;14.55;;;15.10;97.90;;;;;;5037688;28;20026;-73
2021/05/02 03:46:26;;;;;;;19.85;14.52;;;15.10;97.90;;;;;;5032936;28;20024;-73
2021/05/02 03:49:04;;;;;;;18.38;13.75;;;15.10;97.90;;;;;;5053401;28;20077;-74
2021/05/02 03:51:32;;;;;;;16.27;13.65;;;15.20;97.90;;;;;;5034758;28;20031;-74
2021/05/02 03:53:58;;;;;;;21.42;14.20;;;15.20;97.80;;;;;;5034902;28;20041;-74
2021/05/02 03:56:33;;;;;;;17.17;13.73;;;15.20;97.80;;;;;;5035836;28;20091;-73
2021/05/02 03:59:06;;;;;;;17.63;13.50;;;15.30;97.80;;;;;;5031802;28;20030;-73
2021/05/02 17:07:02;;;;;;;22.58;17.55;;;15.50;99.30;;;;;;5068785;28;20387;-69
2021/05/02 17:09:28;;;;;;;18.98;15.65;;;15.40;98.90;;;;;;5054074;28;20079;-70
2021/05/02 17:11:53;;;;;;;23.00;17.00;;;15.40;99.10;;;;;;5061723;28;20025;-69
2021/05/02 17:14:19;;;;;;;22.40;16.23;;;15.50;99.30;;;;;;5069063;28;20052;-69
2021/05/02 17:16:45;;;;;;;18.52;15.15;;;15.50;99.30;;;;;;5068877;28;20475;-69
2021/05/02 17:19:11;;;;;;;19.92;15.60;;;15.60;99.40;;;;;;5068816;28;20039;-69
2021/05/02 17:21:37;;;;;;;18.30;15.50;;;15.60;99.40;;;;;;5068598;28;20562;-70
2021/05/02 17:24:04;;;;;;;20.60;16.60;;;15.60;99.40;;;;;;5068575;28;20112;-69
2021/05/02 17:26:30;;;;;;;21.20;15.48;;;15.70;99.40;;;;;;5068592;28;20017;-69
2021/05/02 17:28:56;;;;;;;19.17;16.25;;;15.70;99.40;;;;;;5068548;28;20017;-69
2021/05/02 17:31:22;;;;;;;22.80;16.63;;;15.70;99.30;;;;;;5068558;28;20025;-69
2021/05/02 17:33:48;;;;;;;19.63;15.57;;;15.70;99.30;;;;;;5068537;28;20040;-69
2021/05/02 17:36:13;;;;;;;19.05;15.45;;;15.80;99.20;;;;;;5068738;28;20441;-69
2021/05/02 17:38:39;;;;;;;22.15;16.10;;;15.80;99.20;;;;;;5068398;28;20056;-69
2021/05/02 17:41:06;;;;;;;22.63;16.10;;;15.90;99.20;;;;;;5068457;28;20086;-69
2021/05/02 17:43:32;;;;;;;18.77;14.93;;;15.90;99.10;;;;;;5069594;28;20020;-69
2021/05/02 17:45:57;;;;;;;18.98;15.25;;;15.90;99.10;;;;;;5070122;28;20109;-69
2021/05/02 17:48:23;;;;;;;22.17;16.67;;;15.90;99.10;;;;;;5068882;28;20025;-69
2021/05/02 17:50:51;;;;;;;23.20;17.05;;;15.90;99.00;;;;;;5070114;28;20070;-69
2021/05/02 17:53:16;;;;;;;20.60;15.82;;;16.00;99.10;;;;;;5070065;28;20049;-69
2021/05/02 17:55:43;;;;;;;21.85;17.35;;;16.00;99.10;;;;;;5069913;28;20398;-69
2021/05/02 17:58:13;;;;;;;20.60;15.60;;;16.00;99.10;;;;;;5070034;28;20016;-69
2021/05/02 18:00:40;;;;;;;21.20;15.88;;;16.00;99.00;;;;;;5069917;28;20032;-69
2021/05/02 18:03:07;;;;;;;19.73;15.60;;;16.00;98.90;;;;;;5069900;28;20021;-69
2021/05/02 18:05:34;;;;;;;20.23;17.13;;;16.00;99.00;;;;;;5069431;28;20051;-68
2021/05/02 18:07:59;;;;;;;22.52;15.85;;;16.00;98.90;;;;;;5069871;28;20406;-69
2021/05/02 18:10:25;;;;;;;23.17;16.77;;;16.00;98.90;;;;;;5069570;28;20025;-69
2021/05/02 18:12:51;;;;;;;20.98;16.27;;;16.00;98.90;;;;;;5069634;28;20055;-69
2021/05/02 18:15:17;;;;;;;21.15;16.67;;;16.00;98.90;;;;;;5069797;28;20505;-69
2021/05/02 18:17:45;;;;;;;24.35;16.55;;;15.90;98.90;;;;;;5060159;28;20377;-69
2021/05/02 18:20:12;;;;;;;22.02;16.92;;;15.90;98.90;;;;;;5056141;28;20539;-69
2021/05/02 18:22:38;;;;;;;21.30;16.25;;;15.90;98.90;;;;;;5056577;28;20426;-69
2021/05/02 18:25:05;;;;;;;24.13;17.27;;;15.90;98.90;;;;;;5056300;28;20029;-69
2021/05/02 18:27:31;;;;;;;21.75;17.15;;;15.80;98.90;;;;;;5056345;28;20071;-69
2021/05/02 18:29:58;;;;;;;26.70;19.15;;;15.80;98.90;;;;;;5056166;28;20394;-69
2021/05/02 18:32:24;;;;;;;23.60;17.20;;;15.70;99.00;;;;;;5056215;28;20029;-69
2021/05/02 18:34:50;;;;;;;22.20;16.88;;;15.70;99.00;;;;;;5056126;28;20375;-69
2021/05/02 18:37:16;;;;;;;24.45;18.58;;;15.70;99.00;;;;;;5055935;28;20025;-69
2021/05/02 18:39:43;;;;;;;24.48;18.05;;;15.70;99.00;;;;;;5055980;28;20493;-69
2021/05/02 18:42:10;;;;;;;20.58;16.77;;;15.70;99.00;;;;;;5055526;28;20490;-69
2021/05/02 18:44:35;;;;;;;22.95;17.20;;;15.70;99.00;;;;;;5053849;28;20025;-69
2021/05/02 18:47:02;;;;;;;22.77;18.23;;;15.60;99.00;;;;;;5053907;28;20036;-69
2021/05/02 18:49:27;;;;;;;25.35;19.20;;;15.60;99.10;;;;;;5053763;28;20027;-69
2021/05/02 18:51:53;;;;;;;26.50;19.88;;;15.60;99.10;;;;;;5053841;28;20025;-69
2021/05/02 18:54:19;;;;;;;24.02;18.48;;;15.60;99.30;;;;;;5053757;28;20100;-69
2021/05/02 18:56:44;;;;;;;23.67;17.15;;;15.60;99.20;;;;;;5053967;28;20036;-69
2021/05/02 18:59:10;;;;;;;24.65;17.63;;;15.50;99.20;;;;;;5053817;28;20422;-69
2021/05/02 19:01:36;;;;;;;30.38;21.52;;;15.50;99.20;;;;;;5053642;28;20099;-69
2021/05/02 19:04:02;;;;;;;22.70;18.17;;;15.50;99.40;;;;;;5053511;28;20364;-69
2021/05/02 19:06:27;;;;;;;23.95;18.25;;;15.50;99.30;;;;;;5053247;28;20041;-69
2021/05/02 19:08:55;;;;;;;22.38;18.45;;;15.50;99.20;;;;;;5053451;28;20106;-69
2021/05/02 19:11:21;;;;;;;23.23;18.60;;;15.50;99.30;;;;;;5053433;28;20013;-69
2021/05/02 19:13:47;;;;;;;25.63;19.75;;;15.40;99.20;;;;;;5053425;28;20096;-69
2021/05/02 19:16:12;;;;;;;24.80;18.17;;;15.50;99.30;;;;;;5053341;28;20447;-69
2021/05/02 19:18:38;;;;;;;24.50;19.40;;;15.50;99.40;;;;;;5053264;28;20068;-69
2021/05/02 19:21:04;;;;;;;26.02;19.35;;;15.40;99.40;;;;;;5053255;28;20474;-69
2021/05/02 19:23:31;;;;;;;25.45;17.85;;;15.40;99.40;;;;;;5053206;28;20375;-69
2021/05/02 19:25:56;;;;;;;24.83;18.33;;;15.40;99.50;;;;;;5053162;28;20126;-69
2021/05/02 19:28:22;;;;;;;21.90;17.50;;;15.40;99.40;;;;;;5052346;28;20044;-69
2021/05/02 19:30:48;;;;;;;25.27;18.33;;;15.40;99.40;;;;;;5052908;28;20055;-69
2021/05/02 19:33:14;;;;;;;23.77;16.80;;;15.40;99.40;;;;;;5052860;28;20041;-69
2021/05/02 19:35:39;;;;;;;26.73;19.55;;;15.30;99.40;;;;;;5053068;28;20462;-69
2021/05/02 19:38:05;;;;;;;25.23;17.15;;;15.30;99.40;;;;;;5052965;28;20497;-69
2021/05/02 19:40:31;;;;;;;26.23;18.00;;;15.30;99.40;;;;;;5035966;28;20021;-68
2021/05/02 19:42:58;;;;;;;23.20;18.17;;;15.30;99.40;;;;;;5033716;28;20045;-68
2021/05/02 19:45:24;;;;;;;23.65;18.48;;;15.20;99.40;;;;;;5034957;28;20025;-68
2021/05/02 19:47:50;;;;;;;25.35;18.77;;;15.20;99.50;;;;;;5034727;28;20095;-67
2021/05/02 19:50:16;;;;;;;25.23;19.13;;;15.30;99.50;;;;;;5034105;28;20120;-67
2021/05/02 19:52:42;;;;;;;26.17;19.35;;;15.20;99.50;;;;;;5034704;28;20026;-66
2021/05/02 19:55:10;;;;;;;28.65;21.73;;;15.20;99.60;;;;;;5041884;28;20391;-67
2021/05/02 19:57:36;;;;;;;29.08;21.13;;;15.20;99.70;;;;;;5033995;28;20076;-66
2021/05/02 20:00:08;;;;;;;25.60;20.65;;;15.20;99.60;;;;;;5033349;28;20029;-66
2021/05/02 20:02:34;;;;;;;27.38;20.77;;;15.10;99.70;;;;;;5033607;28;20013;-66
2021/05/02 20:05:00;;;;;;;28.50;21.60;;;15.10;99.70;;;;;;5033652;28;20045;-66
2021/05/02 20:07:25;;;;;;;28.17;21.00;;;15.10;99.80;;;;;;5034255;28;20033;-66
2021/05/02 20:09:51;;;;;;;29.73;22.50;;;15.10;99.70;;;;;;5014006;28;20029;-66
2021/05/02 20:12:17;;;;;;;32.53;24.20;;;15.10;99.70;;;;;;5031666;28;20066;-67
2021/05/02 20:14:43;;;;;;;31.50;24.92;;;15.10;99.70;;;;;;5039281;28;20483;-67
2021/05/02 20:17:10;;;;;;;37.03;26.63;;;15.10;99.80;;;;;;5033310;28;20060;-67
2021/05/02 20:19:35;;;;;;;34.83;25.75;;;15.10;99.80;;;;;;5033597;28;20024;-67
2021/05/02 20:22:01;;;;;;;37.20;27.15;;;15.10;99.80;;;;;;5033494;28;20021;-67
2021/05/02 20:24:27;;;;;;;32.88;24.48;;;15.00;99.90;;;;;;5032999;28;20105;-67
2021/05/02 20:26:52;;;;;;;30.40;22.60;;;15.00;99.80;;;;;;5033428;28;20613;-67
2021/05/02 20:29:18;;;;;;;33.42;23.02;;;15.00;99.80;;;;;;5033374;28;20056;-67
2021/05/02 20:31:43;;;;;;;31.20;23.58;;;15.00;99.80;;;;;;5033331;28;20028;-67
2021/05/02 20:34:10;;;;;;;30.10;22.42;;;15.00;99.90;;;;;;5033361;28;20053;-67
2021/05/02 20:36:38;;;;;;;28.30;21.83;;;15.00;99.90;;;;;;5038741;28;20024;-74
2021/05/02 20:39:07;;;;;;;30.40;21.40;;;14.90;99.80;;;;;;5037852;28;20076;-75
2021/05/02 20:41:33;;;;;;;29.07;19.47;;;15.00;99.90;;;;;;5032925;28;20033;-75
2021/05/02 20:43:59;;;;;;;30.35;20.00;;;14.90;99.70;;;;;;5032354;28;20029;-75
2021/05/02 20:46:25;;;;;;;36.50;19.70;;;14.90;99.70;;;;;;5031962;28;20029;-75
2021/05/02 20:48:52;;;;;;;33.42;19.23;;;14.90;99.70;;;;;;5032436;28;20356;-75
2021/05/02 20:51:18;;;;;;;35.10;20.63;;;14.90;99.70;;;;;;5031967;28;20048;-74
2021/05/02 20:53:44;;;;;;;27.63;17.58;;;14.90;99.70;;;;;;5032875;28;20032;-75
2021/05/02 20:56:10;;;;;;;33.35;19.33;;;14.90;99.70;;;;;;5032766;28;20029;-75
2021/05/02 20:58:35;;;;;;;25.10;17.73;;;14.90;99.70;;;;;;5032610;28;20032;-74
2021/05/02 21:01:01;;;;;;;28.45;17.73;;;14.90;99.60;;;;;;5031464;28;20033;-75
2021/05/02 21:03:27;;;;;;;29.50;17.88;;;14.90;99.60;;;;;;5032520;28;20049;-75
2021/05/02 21:05:53;;;;;;;32.15;17.75;;;15.00;99.60;;;;;;5032338;28;20103;-74
2021/05/02 21:08:18;;;;;;;36.88;17.40;;;15.00;99.60;;;;;;5032774;28;20033;-75
2021/05/02 21:10:44;;;;;;;36.75;18.23;;;15.00;99.60;;;;;;5032760;28;20108;-75
2021/05/02 21:13:10;;;;;;;31.35;17.63;;;15.00;99.60;;;;;;5032803;28;20045;-75
2021/05/02 21:15:36;;;;;;;33.50;18.38;;;15.00;99.50;;;;;;5032784;28;20108;-75
2021/05/02 21:18:05;;;;;;;28.80;17.15;;;15.00;99.50;;;;;;5032561;28;20045;-75
2021/05/02 21:20:31;;;;;;;32.40;17.15;;;15.00;99.50;;;;;;5032553;28;20038;-75
2021/05/02 21:22:56;;;;;;;35.35;17.25;;;15.00;99.50;;;;;;5032520;28;20038;-75
2021/05/02 21:25:22;;;;;;;30.95;17.30;;;15.00;99.40;;;;;;5032471;28;20026;-74
2021/05/02 21:27:48;;;;;;;30.42;16.50;;;15.00;99.40;;;;;;5032457;28;20452;-74
2021/05/02 21:30:14;;;;;;;35.33;17.33;;;15.00;99.30;;;;;;5032435;28;20037;-74
2021/05/02 21:32:39;;;;;;;28.75;17.73;;;15.00;99.30;;;;;;5032431;28;20025;-75
2021/05/02 21:35:07;;;;;;;29.63;17.95;;;14.90;99.30;;;;;;5032335;28;20057;-74
2021/05/02 21:37:32;;;;;;;32.97;17.77;;;14.90;99.30;;;;;;5032072;28;20030;-74
2021/05/02 21:39:58;;;;;;;30.67;17.48;;;14.90;99.30;;;;;;5032423;28;20037;-75
2021/05/02 21:42:24;;;;;;;34.17;17.42;;;14.90;99.20;;;;;;5032549;28;20034;-74
2021/05/02 21:44:50;;;;;;;27.75;17.10;;;14.80;99.20;;;;;;5033173;28;20363;-74
2021/05/02 21:47:16;;;;;;;27.13;17.00;;;14.80;99.10;;;;;;5033505;28;20446;-75
2021/05/02 21:49:42;;;;;;;26.88;17.75;;;14.80;99.20;;;;;;5033058;28;20014;-74
2021/05/02 21:52:11;;;;;;;26.67;16.88;;;14.70;99.20;;;;;;5034723;28;20451;-74
2021/05/02 21:54:37;;;;;;;22.17;16.48;;;14.70;99.20;;;;;;5036738;28;20028;-74
2021/05/02 21:57:03;;;;;;;23.58;15.85;;;14.70;99.20;;;;;;5037332;28;20408;-74
2021/05/02 21:59:29;;;;;;;21.83;14.65;;;14.60;99.20;;;;;;5037066;28;20037;-75
2021/05/02 22:01:56;;;;;;;24.23;15.13;;;14.60;99.20;;;;;;5037122;28;20037;-74
2021/05/02 22:04:23;;;;;;;25.40;14.52;;;14.60;99.20;;;;;;5036641;28;20036;-75
2021/05/02 22:06:49;;;;;;;22.63;14.15;;;14.60;99.20;;;;;;5036401;28;20057;-75
2021/05/02 22:09:15;;;;;;;21.38;13.93;;;14.50;99.20;;;;;;5036553;28;20021;-76
2021/05/02 22:11:41;;;;;;;22.60;14.48;;;14.50;99.20;;;;;;5036524;28;20052;-75
2021/05/02 22:14:07;;;;;;;20.02;13.73;;;14.50;99.20;;;;;;5036856;28;20018;-76
2021/05/02 22:16:33;;;;;;;20.75;14.38;;;14.50;99.20;;;;;;5036818;28;20044;-75
2021/05/02 22:18:59;;;;;;;20.45;13.60;;;14.40;99.20;;;;;;5036797;28;20060;-77
2021/05/02 22:21:24;;;;;;;20.33;13.32;;;14.40;99.10;;;;;;5036629;28;20030;-77
2021/05/02 22:23:50;;;;;;;24.08;14.25;;;14.40;99.10;;;;;;5036171;28;20487;-77
2021/05/02 22:26:18;;;;;;;21.35;12.60;;;14.40;99.10;;;;;;5036160;28;20036;-77
2021/05/02 22:28:45;;;;;;;20.70;14.00;;;14.30;99.30;;;;;;5036522;28;20025;-78
2021/05/02 22:31:12;;;;;;;20.05;14.27;;;14.40;99.10;;;;;;5036452;28;20021;-76
2021/05/02 22:33:39;;;;;;;22.77;14.70;;;14.30;99.10;;;;;;5036767;28;20014;-74
2021/05/02 22:36:06;;;;;;;21.33;13.48;;;14.30;99.10;;;;;;5036754;28;20025;-77
2021/05/02 22:38:32;;;;;;;22.20;13.60;;;14.30;99.10;;;;;;5036754;28;20033;-76
2021/05/02 22:40:58;;;;;;;23.10;13.63;;;14.30;99.10;;;;;;5035850;28;20025;-76
2021/05/02 22:43:24;;;;;;;22.33;14.60;;;14.30;99.10;;;;;;5035408;28;20033;-75
2021/05/02 22:45:51;;;;;;;20.98;13.88;;;14.20;99.00;;;;;;5035211;28;20459;-75
2021/05/02 22:48:17;;;;;;;22.50;14.23;;;14.20;99.10;;;;;;5035528;28;20474;-75
2021/05/02 22:50:44;;;;;;;20.25;14.60;;;14.20;99.00;;;;;;5035494;28;20511;-80
2021/05/02 22:53:11;;;;;;;29.17;14.82;;;14.10;99.00;;;;;;5035506;28;20029;-76
2021/05/02 22:55:40;;;;;;;26.27;15.05;;;14.10;99.00;;;;;;5033874;28;20053;-76
2021/05/02 22:58:09;;;;;;;22.00;14.63;;;14.10;99.10;;;;;;5035222;28;20033;-76
2021/05/02 23:00:48;;;;;;;27.55;14.85;;;14.10;99.00;;;;;;5035387;28;20032;-75
2021/05/02 23:03:17;;;;;;;29.40;17.92;;;14.00;99.00;;;;;;5035206;28;20032;-76
2021/05/02 23:05:44;;;;;;;27.48;15.90;;;14.00;99.00;;;;;;5034907;28;20056;-76
2021/05/02 23:08:10;;;;;;;21.48;13.88;;;14.00;99.00;;;;;;5035301;28;20109;-76
2021/05/02 23:10:37;;;;;;;22.50;14.38;;;14.00;99.00;;;;;;5041806;28;20044;-77
2021/05/02 23:13:04;;;;;;;25.00;13.80;;;13.90;99.10;;;;;;5035045;28;20022;-76
2021/05/02 23:15:30;;;;;;;27.05;14.85;;;13.90;99.10;;;;;;5035501;28;20022;-77
2021/05/02 23:17:56;;;;;;;23.00;14.45;;;13.90;99.10;;;;;;5035428;28;20021;-78
2021/05/02 23:20:22;;;;;;;27.70;15.25;;;13.90;99.10;;;;;;5034121;28;20096;-76
2021/05/02 23:22:49;;;;;;;24.02;14.60;;;13.90;99.10;;;;;;5035190;28;20483;-78
2021/05/02 23:25:15;;;;;;;21.38;14.65;;;13.90;99.10;;;;;;5035483;28;20459;-77
2021/05/02 23:27:40;;;;;;;24.30;13.48;;;13.80;99.20;;;;;;5035169;28;20033;-79
2021/05/02 23:30:09;;;;;;;26.17;14.05;;;13.90;99.10;;;;;;5035002;28;20025;-76
2021/05/02 23:32:35;;;;;;;23.85;14.65;;;13.80;99.10;;;;;;5035171;28;20041;-78
2021/05/02 23:35:02;;;;;;;21.20;14.48;;;13.80;99.10;;;;;;5035097;28;20029;-80
2021/05/02 23:37:28;;;;;;;21.25;13.90;;;13.80;99.10;;;;;;5035033;28;20033;-78
2021/05/02 23:39:53;;;;;;;26.45;15.88;;;13.80;99.40;;;;;;5034953;28;20025;-76
2021/05/02 23:42:19;;;;;;;28.73;15.32;;;13.70;99.20;;;;;;5034850;28;20052;-77
2021/05/02 23:44:46;;;;;;;22.42;14.90;;;13.70;99.20;;;;;;5034933;28;20029;-77
2021/05/02 23:47:12;;;;;;;31.15;16.00;;;13.70;99.20;;;;;;5034694;28;20025;-78
2021/05/02 23:49:39;;;;;;;20.90;14.00;;;13.70;99.20;;;;;;5034808;28;20022;-77
2021/05/02 23:52:05;;;;;;;28.83;15.80;;;13.70;99.20;;;;;;5035103;28;20078;-78
2021/05/02 23:54:31;;;;;;;22.08;14.75;;;13.70;99.20;;;;;;5035036;28;20025;-82
2021/05/02 23:56:57;;;;;;;25.30;15.45;;;13.70;99.20;;;;;;5034546;28;20032;-79
2021/05/02 23:59:22;;;;;;;28.42;16.73;;;13.70;99.20;;;;;;5034640;28;20029;-82
